createdAt,value
2022-09-21T00:00:52.001Z,6.00
2022-09-21T00:03:18.546Z,5.90
2022-09-21T00:05:44.913Z,5.95
2022-09-21T00:08:13.774Z,6.06
2022-09-21T00:10:40.480Z,6.03
2022-09-21T00:13:08.743Z,5.81
2022-09-21T00:15:35.145Z,5.79
2022-09-21T00:18:01.740Z,5.85
2022-09-21T00:20:29.001Z,5.88
2022-09-21T00:22:55.338Z,5.91
2022-09-21T00:25:21.663Z,5.97
2022-09-21T00:27:51.212Z,6.03
2022-09-21T00:30:18.165Z,6.12
2022-09-21T00:32:44.530Z,6.17
2022-09-21T00:35:11.082Z,6.16
2022-09-21T00:37:37.431Z,6.01
2022-09-21T00:40:04.782Z,5.98
2022-09-21T00:42:35.227Z,6.02
2022-09-21T00:45:01.912Z,6.05
2022-09-21T00:47:39.450Z,6.02
2022-09-21T00:50:20.237Z,5.96
2022-09-21T00:52:52.294Z,5.89
2022-09-21T00:55:24.474Z,5.86
2022-09-21T00:57:58.844Z,5.79
2022-09-21T01:00:25.402Z,5.72
2022-09-21T01:02:51.944Z,5.71
2022-09-21T01:05:18.746Z,5.70
2022-09-21T01:07:47.096Z,5.82
2022-09-21T01:10:17.474Z,5.90
2022-09-21T01:13:14.338Z,5.93
2022-09-21T01:15:50.503Z,5.88
2022-09-21T01:18:41.716Z,5.85
2022-09-21T01:21:12.636Z,5.93
2022-09-21T01:24:12.515Z,5.89
2022-09-21T01:27:05.487Z,5.62
2022-09-21T01:29:38.299Z,5.51
2022-09-21T01:32:17.966Z,5.41
2022-09-21T01:34:59.257Z,5.38
2022-09-21T01:37:41.840Z,5.40
2022-09-21T01:40:18.381Z,5.47
2022-09-21T01:42:48.086Z,5.45
2022-09-21T01:45:17.823Z,5.43
2022-09-21T01:47:48.300Z,5.38
2022-09-21T01:50:17.022Z,5.36
2022-09-21T01:52:52.380Z,5.36
2022-09-21T01:55:21.559Z,5.34
2022-09-21T01:58:06.199Z,5.31
2022-09-21T02:00:35.354Z,5.41
2022-09-21T02:03:12.711Z,5.35
2022-09-21T02:05:40.202Z,5.28
2022-09-21T02:08:08.005Z,5.31
2022-09-21T02:10:39.283Z,5.27
2022-09-21T02:13:07.976Z,5.29
2022-09-21T02:15:46.094Z,5.35
2022-09-21T02:18:30.976Z,5.14
2022-09-21T02:21:00.013Z,5.12
2022-09-21T02:23:29.767Z,5.09
2022-09-21T02:26:14.455Z,5.09
2022-09-21T02:29:01.384Z,5.14
2022-09-21T02:31:47.108Z,5.10
2022-09-21T02:34:37.680Z,5.12
2022-09-21T02:37:11.675Z,4.95
2022-09-21T02:39:50.314Z,5.01
2022-09-21T02:42:21.168Z,4.98
2022-09-21T02:44:52.791Z,4.89
2022-09-21T02:47:26.093Z,4.95
2022-09-21T02:49:58.545Z,5.02
2022-09-21T02:52:26.295Z,5.07
2022-09-21T02:54:55.090Z,5.01
2022-09-21T02:57:23.447Z,4.88
2022-09-21T02:59:51.191Z,4.78
2022-09-21T03:02:17.664Z,4.75
2022-09-21T03:04:49.957Z,4.70
2022-09-21T03:07:17.526Z,4.70
2022-09-21T03:09:44.196Z,4.77
2022-09-21T03:12:10.609Z,4.88
2022-09-21T03:14:36.900Z,4.96
2022-09-21T03:17:03.541Z,5.08
2022-09-21T03:19:29.860Z,5.13
2022-09-21T03:21:56.790Z,5.13
2022-09-21T03:24:42.926Z,5.11
2022-09-21T03:27:10.679Z,5.08
2022-09-21T03:29:37.074Z,4.98
2022-09-21T03:32:04.080Z,5.10
2022-09-21T03:34:31.279Z,5.11
2022-09-21T03:36:57.563Z,4.98
2022-09-21T03:39:23.874Z,4.81
2022-09-21T03:41:50.532Z,4.80
2022-09-21T03:44:17.541Z,4.79
2022-09-21T03:46:44.407Z,4.84
2022-09-21T03:49:10.683Z,4.81
2022-09-21T03:51:36.974Z,4.77
2022-09-21T03:54:03.368Z,4.77
2022-09-21T03:56:29.678Z,4.53
2022-09-21T03:58:55.974Z,4.67
2022-09-21T04:01:22.549Z,4.71
2022-09-21T04:03:48.867Z,4.74
2022-09-21T04:06:15.253Z,4.89
2022-09-21T04:08:43.699Z,4.88
2022-09-21T04:11:16.355Z,4.82
2022-09-21T04:13:43.493Z,4.63
2022-09-21T04:16:11.005Z,4.61
2022-09-21T04:18:40.510Z,4.65
2022-09-21T04:21:06.856Z,4.55
2022-09-21T04:23:33.163Z,4.60
2022-09-21T04:25:59.895Z,4.67
2022-09-21T04:28:26.257Z,4.73
2022-09-21T04:30:54.180Z,4.74
2022-09-21T04:33:20.517Z,4.80
2022-09-21T04:35:46.829Z,4.78
2022-09-21T04:38:13.561Z,4.65
2022-09-21T04:40:39.922Z,4.75
2022-09-21T04:43:06.233Z,4.67
2022-09-21T04:45:32.604Z,4.75
2022-09-21T04:47:58.947Z,4.69
2022-09-21T04:50:25.465Z,4.45
2022-09-21T04:52:51.737Z,4.35
2022-09-21T04:55:18.095Z,4.28
2022-09-21T04:57:44.456Z,4.34
2022-09-21T05:00:11.273Z,4.34
2022-09-21T05:02:37.594Z,4.25
2022-09-21T05:05:04.220Z,4.39
2022-09-21T05:07:30.507Z,4.34
2022-09-21T05:10:02.906Z,4.32
2022-09-21T05:12:30.645Z,4.42
2022-09-21T05:14:56.973Z,4.33
2022-09-21T05:17:23.355Z,4.31
2022-09-21T05:19:50.498Z,4.36
2022-09-21T05:22:17.316Z,4.44
2022-09-21T05:24:43.615Z,4.45
2022-09-21T05:27:10.040Z,4.39
2022-09-21T05:29:36.603Z,4.42
2022-09-21T05:32:31.926Z,4.56
2022-09-21T05:35:36.444Z,4.73
2022-09-21T05:38:15.873Z,4.69
2022-09-21T05:40:42.443Z,4.64
2022-09-21T05:43:10.587Z,4.78
2022-09-21T05:45:47.575Z,4.69
2022-09-21T05:48:37.279Z,4.55
2022-09-21T05:51:22.926Z,4.64
2022-09-21T05:54:27.711Z,4.72
2022-09-21T05:57:04.631Z,4.79
2022-09-21T05:59:46.893Z,4.82
2022-09-21T06:02:24.960Z,4.83
2022-09-21T06:04:54.188Z,4.93
2022-09-21T06:07:20.481Z,5.03
2022-09-21T06:09:46.791Z,5.23
2022-09-21T06:12:13.115Z,5.24
2022-09-21T06:14:39.396Z,5.14
2022-09-21T06:17:05.700Z,5.25
2022-09-21T06:19:32.165Z,5.43
2022-09-21T06:21:58.446Z,5.51
2022-09-21T06:24:25.298Z,5.56
2022-09-21T06:26:51.731Z,5.55
2022-09-21T06:29:23.257Z,5.61
2022-09-21T06:31:51.201Z,5.76
2022-09-21T06:34:17.975Z,5.89
2022-09-21T06:36:45.557Z,6.08
2022-09-21T06:39:12.383Z,6.18
2022-09-21T06:41:38.739Z,6.36
2022-09-21T06:44:05.390Z,6.53
2022-09-21T06:46:31.776Z,6.64
2022-09-21T06:48:58.228Z,6.77
2022-09-21T06:51:24.583Z,6.95
2022-09-21T06:53:55.162Z,7.06
2022-09-21T06:56:21.514Z,7.20
2022-09-21T06:58:48.040Z,7.43
2022-09-21T07:01:15.774Z,7.59
2022-09-21T07:03:43.246Z,7.78
2022-09-21T07:06:15.529Z,7.98
2022-09-21T07:11:30.310Z,8.33
2022-09-21T07:13:58.283Z,8.53
2022-09-21T07:16:24.606Z,8.76
2022-09-21T07:18:51.025Z,9.00
2022-09-21T07:21:17.392Z,9.19
2022-09-21T07:23:43.781Z,9.39
2022-09-21T07:26:12.951Z,9.51
2022-09-21T07:28:39.702Z,9.76
2022-09-21T07:31:08.756Z,9.96
2022-09-21T07:33:36.273Z,10.13
2022-09-21T07:36:09.870Z,10.30
2022-09-21T07:38:39.130Z,10.51
2022-09-21T07:41:10.000Z,10.62
2022-09-21T07:43:39.138Z,10.84
2022-09-21T07:46:06.488Z,11.01
2022-09-21T07:48:32.866Z,11.19
2022-09-21T07:51:07.295Z,11.39
2022-09-21T07:53:38.731Z,11.57
2022-09-21T07:56:07.664Z,11.61
2022-09-21T07:58:54.279Z,11.74
2022-09-21T08:01:21.325Z,11.85
2022-09-21T08:03:52.155Z,11.96
2022-09-21T08:06:19.298Z,12.09
2022-09-21T08:08:47.870Z,12.15
2022-09-21T08:11:15.624Z,12.17
2022-09-21T08:13:41.932Z,12.22
2022-09-21T08:16:09.219Z,12.40
2022-09-21T08:18:40.275Z,12.57
2022-09-21T08:21:07.880Z,12.74
2022-09-21T08:23:34.446Z,12.73
2022-09-21T08:26:07.676Z,12.84
2022-09-21T08:28:36.152Z,12.89
2022-09-21T08:31:08.603Z,13.05
2022-09-21T08:33:35.195Z,13.14
2022-09-21T08:36:02.341Z,13.28
2022-09-21T08:38:34.050Z,13.08
2022-09-21T08:41:02.627Z,13.07
2022-09-21T08:43:36.871Z,13.06
2022-09-21T08:46:10.714Z,13.02
2022-09-21T08:48:43.487Z,13.28
2022-09-21T08:51:16.073Z,13.17
2022-09-21T08:53:46.398Z,13.31
2022-09-21T08:56:14.626Z,13.40
2022-09-21T08:58:41.634Z,13.67
2022-09-21T09:01:33.873Z,13.72
2022-09-21T09:04:14.163Z,13.66
2022-09-21T09:06:56.131Z,13.68
2022-09-21T09:09:53.604Z,13.75
2022-09-21T09:12:38.209Z,13.70
2022-09-21T09:15:22.802Z,13.73
2022-09-21T09:18:09.022Z,13.72
2022-09-21T09:20:43.430Z,13.55
2022-09-21T09:23:19.488Z,13.48
2022-09-21T09:25:51.597Z,13.54
2022-09-21T09:28:28.902Z,13.72
2022-09-21T09:31:10.688Z,13.99
2022-09-21T09:33:51.565Z,13.88
2022-09-21T09:36:30.089Z,13.91
2022-09-21T09:39:13.355Z,14.13
2022-09-21T09:41:46.640Z,14.11
2022-09-21T09:44:50.549Z,13.86
2022-09-21T09:47:32.187Z,13.92
2022-09-21T09:50:12.769Z,13.78
2022-09-21T09:52:40.513Z,14.07
2022-09-21T09:55:25.682Z,14.23
2022-09-21T09:57:54.731Z,14.40
2022-09-21T10:00:21.838Z,14.46
2022-09-21T10:02:56.784Z,14.47
2022-09-21T10:05:29.207Z,14.58
2022-09-21T10:07:55.541Z,14.48
2022-09-21T10:10:21.981Z,14.58
2022-09-21T10:12:49.655Z,14.44
2022-09-21T10:15:18.236Z,14.61
2022-09-21T10:17:48.507Z,14.62
2022-09-21T10:20:20.195Z,14.47
2022-09-21T10:22:53.119Z,14.57
2022-09-21T10:25:20.347Z,14.88
2022-09-21T10:27:49.602Z,14.77
2022-09-21T10:30:35.097Z,14.83
2022-09-21T10:33:01.853Z,14.53
2022-09-21T10:35:28.618Z,14.41
2022-09-21T10:38:21.306Z,14.38
2022-09-21T10:40:49.179Z,14.27
2022-09-21T10:43:43.637Z,14.19
2022-09-21T10:46:10.818Z,14.35
2022-09-21T10:48:37.811Z,14.53
2022-09-21T10:51:04.587Z,14.69
2022-09-21T10:53:32.267Z,14.80
2022-09-21T10:56:17.399Z,14.78
2022-09-21T10:59:10.966Z,14.78
2022-09-21T11:01:43.826Z,14.94
2022-09-21T11:04:16.749Z,15.00
2022-09-21T11:06:58.675Z,15.06
2022-09-21T11:09:32.498Z,14.94
2022-09-21T11:12:31.300Z,15.21
2022-09-21T11:15:12.751Z,15.45
2022-09-21T11:17:41.810Z,15.63
2022-09-21T11:20:14.489Z,15.05
2022-09-21T11:22:49.232Z,15.11
2022-09-21T11:25:37.498Z,15.39
2022-09-21T11:28:22.073Z,15.61
2022-09-21T11:31:00.217Z,15.74
2022-09-21T11:33:55.986Z,15.64
2022-09-21T11:36:34.309Z,15.70
2022-09-21T11:39:21.561Z,15.57
2022-09-21T11:41:53.924Z,15.16
2022-09-21T11:44:48.588Z,15.20
2022-09-21T11:47:33.719Z,15.30
2022-09-21T11:50:36.886Z,15.03
2022-09-21T11:53:25.539Z,15.17
2022-09-21T11:55:54.760Z,15.18
2022-09-21T11:58:37.232Z,15.32
2022-09-21T12:01:11.959Z,15.25
2022-09-21T12:03:56.041Z,15.57
2022-09-21T12:07:02.741Z,15.79
2022-09-21T12:09:46.840Z,16.03
2022-09-21T12:12:19.523Z,16.05
2022-09-21T12:15:06.521Z,16.06
2022-09-21T12:18:08.055Z,16.38
2022-09-21T12:20:58.537Z,16.05
2022-09-21T12:23:38.250Z,16.06
2022-09-21T12:26:06.219Z,16.30
2022-09-21T12:28:42.921Z,16.30
2022-09-21T12:31:19.934Z,16.39
2022-09-21T12:33:59.628Z,16.16
2022-09-21T12:36:49.905Z,16.04
2022-09-21T12:39:25.270Z,16.27
2022-09-21T12:42:22.636Z,16.40
2022-09-21T12:44:54.980Z,16.29
2022-09-21T12:47:24.611Z,16.44
2022-09-21T12:49:55.426Z,16.61
2022-09-21T12:52:25.485Z,16.58
2022-09-21T12:55:07.586Z,16.57
2022-09-21T13:01:20.734Z,16.34
2022-09-21T13:03:59.980Z,16.47
2022-09-21T13:06:44.615Z,16.62
2022-09-21T13:09:14.885Z,16.57
2022-09-21T13:11:50.236Z,16.37
2022-09-21T13:14:18.155Z,16.57
2022-09-21T13:16:52.850Z,16.67
2022-09-21T13:19:24.959Z,16.63
2022-09-21T13:22:15.871Z,16.60
2022-09-21T13:24:45.339Z,16.51
2022-09-21T13:27:11.966Z,16.34
2022-09-21T13:29:40.547Z,16.28
2022-09-21T13:32:13.736Z,16.07
2022-09-21T13:34:41.348Z,16.10
2022-09-21T13:37:19.782Z,16.10
2022-09-21T13:39:58.071Z,16.27
2022-09-21T13:42:30.195Z,16.45
2022-09-21T13:45:21.140Z,16.55
2022-09-21T13:47:54.466Z,16.51
2022-09-21T13:50:42.580Z,16.60
2022-09-21T13:53:22.955Z,16.43
2022-09-21T13:55:53.700Z,16.21
2022-09-21T13:58:46.295Z,16.39
2022-09-21T14:01:29.482Z,16.65
2022-09-21T14:04:15.120Z,16.88
2022-09-21T14:06:45.227Z,16.73
2022-09-21T14:09:31.479Z,16.90
2022-09-21T14:12:04.366Z,16.94
2022-09-21T14:14:36.729Z,16.78
2022-09-21T14:17:35.015Z,16.92
2022-09-21T14:20:01.425Z,16.89
2022-09-21T14:22:28.028Z,16.37
2022-09-21T14:25:36.201Z,16.29
2022-09-21T14:28:05.676Z,16.16
2022-09-21T14:30:34.957Z,16.07
2022-09-21T14:33:12.006Z,15.85
2022-09-21T14:35:43.044Z,15.91
2022-09-21T14:38:35.403Z,16.17
2022-09-21T14:41:07.309Z,16.22
2022-09-21T14:43:36.788Z,16.20
2022-09-21T14:46:19.695Z,16.00
2022-09-21T14:49:19.549Z,15.93
2022-09-21T14:52:31.170Z,15.95
2022-09-21T14:55:01.759Z,16.03
2022-09-21T14:57:37.467Z,15.94
2022-09-21T15:00:26.461Z,15.92
2022-09-21T15:03:24.501Z,15.89
2022-09-21T15:05:56.724Z,15.83
2022-09-21T15:09:12.870Z,15.82
2022-09-21T15:11:49.083Z,15.72
2022-09-21T15:14:37.164Z,15.68
2022-09-21T15:17:25.685Z,15.76
2022-09-21T15:19:58.119Z,15.75
2022-09-21T15:22:24.804Z,15.67
2022-09-21T15:24:56.386Z,15.53
2022-09-21T15:27:26.552Z,15.46
2022-09-21T15:29:55.614Z,15.56
2022-09-21T15:32:30.349Z,15.66
2022-09-21T15:35:14.976Z,15.59
2022-09-21T15:37:41.637Z,15.63
2022-09-21T15:40:46.457Z,15.70
2022-09-21T15:43:16.794Z,15.55
2022-09-21T15:45:55.753Z,15.57
2022-09-21T15:48:23.502Z,15.68
2022-09-21T15:51:01.509Z,15.79
2022-09-21T15:53:31.811Z,15.83
2022-09-21T15:56:01.395Z,15.78
2022-09-21T15:58:35.539Z,15.64
2022-09-21T16:01:04.373Z,15.56
2022-09-21T16:03:30.948Z,15.50
2022-09-21T16:05:57.538Z,15.47
2022-09-21T16:08:28.422Z,15.44
2022-09-21T16:11:13.074Z,15.38
2022-09-21T16:13:59.046Z,15.33
2022-09-21T16:16:26.703Z,15.34
2022-09-21T16:18:59.920Z,15.34
2022-09-21T16:21:32.338Z,15.34
2022-09-21T16:24:17.818Z,15.21
2022-09-21T16:26:57.164Z,15.23
2022-09-21T16:29:29.318Z,15.12
2022-09-21T16:32:17.313Z,15.04
2022-09-21T16:34:51.675Z,14.97
2022-09-21T16:37:26.500Z,14.97
2022-09-21T16:39:57.855Z,14.94
2022-09-21T16:42:27.743Z,14.89
2022-09-21T16:44:55.096Z,14.90
2022-09-21T16:47:26.830Z,14.91
2022-09-21T16:50:00.171Z,14.84
2022-09-21T16:52:28.504Z,14.69
2022-09-21T16:54:56.456Z,14.59
2022-09-21T16:57:23.912Z,14.49
2022-09-21T16:59:50.377Z,14.45
2022-09-21T17:02:18.370Z,14.45
2022-09-21T17:04:44.885Z,14.36
2022-09-21T17:07:13.138Z,14.38
2022-09-21T17:09:44.153Z,14.43
2022-09-21T17:12:13.599Z,14.31
2022-09-21T17:14:46.403Z,14.19
2022-09-21T17:17:19.911Z,14.16
2022-09-21T17:19:49.671Z,14.23
2022-09-21T17:22:19.587Z,14.24
2022-09-21T17:24:52.380Z,14.19
2022-09-21T17:27:23.815Z,14.11
2022-09-21T17:29:50.905Z,14.04
2022-09-21T17:32:22.570Z,13.94
2022-09-21T17:35:33.775Z,13.86
2022-09-21T17:38:00.357Z,13.72
2022-09-21T17:40:27.299Z,13.64
2022-09-21T17:43:06.276Z,13.61
2022-09-21T17:45:43.057Z,13.50
2022-09-21T17:48:18.018Z,13.38
2022-09-21T17:50:44.559Z,13.30
2022-09-21T17:53:29.758Z,13.20
2022-09-21T17:56:04.447Z,13.05
2022-09-21T17:58:59.948Z,13.04
2022-09-21T18:01:30.327Z,12.94
2022-09-21T18:03:57.445Z,12.86
2022-09-21T18:06:24.344Z,12.85
2022-09-21T18:08:50.943Z,12.76
2022-09-21T18:11:24.668Z,12.60
2022-09-21T18:14:05.988Z,12.48
2022-09-21T18:16:47.945Z,12.60
2022-09-21T18:19:55.031Z,12.69
2022-09-21T18:22:45.606Z,12.34
2022-09-21T18:25:15.971Z,12.18
2022-09-21T18:27:47.928Z,12.08
2022-09-21T18:30:16.660Z,11.98
2022-09-21T18:33:01.604Z,12.00
2022-09-21T18:35:43.715Z,12.04
2022-09-21T18:38:37.182Z,12.06
2022-09-21T18:41:21.321Z,11.90
2022-09-21T18:44:18.635Z,12.01
2022-09-21T18:46:55.926Z,12.06
2022-09-21T18:49:42.238Z,12.10
2022-09-21T18:52:22.026Z,12.13
2022-09-21T18:54:49.634Z,12.13
2022-09-21T18:57:16.511Z,12.07
2022-09-21T18:59:43.430Z,12.05
2022-09-21T19:02:16.301Z,11.98
2022-09-21T19:04:51.270Z,11.96
2022-09-21T19:32:59.403Z,11.17
2022-09-21T19:35:57.543Z,11.15
2022-09-21T19:38:25.014Z,10.98
2022-09-21T19:41:02.413Z,10.87
2022-09-21T19:43:47.440Z,10.86
2022-09-21T19:46:34.125Z,10.91
2022-09-21T19:49:20.120Z,10.96
2022-09-21T19:51:51.514Z,10.97
2022-09-21T19:54:42.598Z,10.94
2022-09-21T19:57:34.240Z,10.73
2022-09-21T20:00:02.161Z,10.81
2022-09-21T20:03:06.099Z,10.86
2022-09-21T23:01:34.398Z,7.94
2022-09-21T23:07:07.912Z,7.81
2022-09-21T23:09:34.420Z,7.91
2022-09-21T23:12:01.348Z,7.83
2022-09-21T23:14:28.013Z,7.94
2022-09-21T23:16:54.693Z,7.78
2022-09-21T23:19:32.285Z,7.71
